VOHYVOBG

Guest
Details From VOHY - HYDERABAD
To VOBG - Bangalore
Flight Number -
Tags generated
Created
Modified
Stats Distance 276 nm / 510 km
Max Altitude 30,500 ft / 9,296 m
Waypoints 6
Social Downloads 1
Likes 0
Share VATSIM

Download

Looking for another format? Having issues loading an existing format? Contact us
Advertisement - Login to hide

Notes

Basic altitude profile: - Ascent Rate: 2500ft/min - Ascent Speed: 150kts - Cruise Altitude: 25000ft - Cruise Speed: 250kts - Descent Rate: 1500ft/min - Descent Speed: 200kts Options: - Use NATs: yes - Use PACOTS: yes - Use low airways: yes - Use high airways: no

Route

VOHY HHY W57 BBG VOBG

ID Type Via Altitude Latitude Longitude Leg Dist Tot Dist Heading (true) Name
O VOHY APT - 0 ft / 0 m 17.45325˚ 78.46909˚ - 0 nm - HYDERABAD
HHY VOR - 200 ft / 61 m 17.45444˚ 78.45750˚ 0 nm 0 nm 276° / 276° HYDERABAD VOR-DME
VIRAM FIX W57 (AWY-LO) 30,500 ft / 9,296 m 15.35956˚ 78.09872˚ 127 nm 128 nm 189° / 189° -
LATID FIX W57 (AWY-LO) 20,000 ft / 6,096 m 14.47629˚ 77.94875˚ 53 nm 181 nm 189° / 189° -
BBG VOR W57 (AWY-LO) 10,000 ft / 3,048 m 12.94975˚ 77.68100˚ 93 nm 274 nm 190° / 190° BANGALORE VOR-DME
O VOBG APT - 0 ft / 0 m 12.95016˚ 77.67065˚ 0 nm 275 nm 272° / 272° Bangalore

Altitude Profile

Advertisement - Login to hide

Weather


0- 5 10 15 20 25 30 35+ Temperature / ° C

Clouds and Precipitation
Forecast for 2017-12-11 18:00 UTC. Updated 2 hours ago

Ground ~20,000 ft ~40,000 ft Winds

VOHY

Details ICAO VOHY (HYD)
Name HYDERABAD
Region India
Timezone Asia/Kolkata (UTC+5.5)
Stats Elevation 1,742 ft / 531 m (AMSL)
Location 17.453253° 78.469092°
Runways 1
Magnetic Variation 0.582° W

METAR

VOHY 111500Z 00000KT 6000 NSC 20/12 Q1018 NOSIG

Decode

TAF

Not found

Departure Runways

ID Width Length Bearing (true) Bearing (mag) Surface Threshold Offset Overrun Length
09 148 ft / 45 m 10,585 ft / 3,226 m 88.81° 89.39° Asphalt 1,575 ft / 480 m 200 ft / 61 m
27 148 ft / 45 m 10,585 ft / 3,226 m 268.82° 269.40° Asphalt 2,424 ft / 739 m 200 ft / 61 m

VOBG

Details ICAO VOBG
Name Bangalore
Region India
Timezone Asia/Kolkata (UTC+5.5)
Stats Elevation 2,912 ft / 888 m (AMSL)
Location 12.950157° 77.670647°
Runways 1
Magnetic Variation 1.217° W

METAR

VOBG 111500Z 14003KT 8000 SCT015 SCT080 24/15 Q1018

Decode

TAF

Not found

Destination Runways

ID Width Length Bearing (true) Bearing (mag) Surface Threshold Offset Overrun Length
09 200 ft / 61 m 10,786 ft / 3,288 m 84.80° 86.02° Asphalt 0 ft / 0 m 950 ft / 290 m
27 200 ft / 61 m 10,786 ft / 3,288 m 264.81° 266.03° Asphalt 0 ft / 0 m 980 ft / 299 m

Approach Navaids

Runway Type Ident Frequency Range Bearing (true) Bearing (mag) Slope Elevation
27 Localiser IBLR 110.50 MHz 18 nm / 33 km 262.49° 263.70° - 2,912 ft / 888 m (AMSL)
27 Glidescope IBLR 110.50 MHz 10 nm / 19 km 264.81° 266.03° 3.00° 2,943 ft / 897 m (AMSL)
27 DME IBLR 110.50 MHz 18 nm / 33 km - - - 2,912 ft / 888 m (AMSL)

Popular Alternatives